Главная страница
METAR-TAF:

METAR-TAF

Аэропорты :

Waterbury-Oxford Airport

Оксфорд, Коннектикут, США

широта: 41-29N, долгота: 073-08W, высота над уровнем моря: 222 м

Текущие метеонаблюдения

Эта сводка был подготовлена 12 минут назад, в 20:51 UTC
Ветер 5 Узел от восточно-юго-восточный
Температура 23°C
Влажность 73%
Давление 1021 hPa
Видимость: 16.1 км
небольшая облачность на высоте 3500 фута
Рассеянная облачность на высоте 6500 фута

METAR: KOXC 202051Z 11005KT 10SM FEW035 BKN065 23/18 A3014 RMK AO2 SLP214 T02330178 58008

Время: 17:03 (21:03 UTC)


TAF: отсутствует

Метеонаблюдения и прогнозы для более 4000 аэропортов (сводки METAR и TAF).

Имеющиеся станции представлены на карте желтыми и красными точками.

Чтобы увидеть название станции, наведите на нее мышь.

Затем щелкните, чтобы увидеть метеонаблюдения и метеопрогнозы.

Управление картой: чтобы увеличить масштаб, щелкните зеленые кнопки с черным крестиком; чтобы уменьшить масштаб, щелкните зеленую кнопку с тире; для просмотра соседних карт щелкайте зеленые стрелки.


METAR-TAF: